This is the latest recevied weather packets stored in our database for station/object EA3KZ-1. If no packets are shown the sender has not sent any weather packets the latest 1 day(s).
| Time | Temp. | Humidity | Pressure | Rain* | Wind** | Luminosity | Snow |
|---|---|---|---|---|---|---|---|
| 1778008818 | 12.78° C | 79% | 1005.6 hPa | 0 mm | 1.34 m/s, 295° | - | - |
| 1778008216 | 12.78° C | 81% | 1005.6 hPa | 0 mm | 1.79 m/s, 255° | - | - |
| 1778007673 | 12.78° C | 81% | 1005.8 hPa | 0 mm | 1.34 m/s, 248° | - | - |
| 1778007070 | 12.22° C | 83% | 1005.7 hPa | 0 mm | 0.89 m/s, 261° | - | - |
| 1778006467 | 12.22° C | 84% | 1005.6 hPa | 0 mm | 0.89 m/s, 241° | - | - |
| 1778005864 | 12.22° C | 84% | 1005.6 hPa | 0 mm | 1.34 m/s, 237° | - | - |
| 1778005261 | 11.67° C | 87% | 1005.6 hPa | 0 mm | 1.34 m/s, 248° | - | - |
| 1778004659 | 11.67° C | 90% | 1005.6 hPa | 0.25 mm | 0.89 m/s, 238° | - | - |
| 1778004056 | 11.67° C | 91% | 1005.5 hPa | 0.25 mm | 0.89 m/s, 231° | - | - |
| 1778003454 | 11.67° C | 92% | 1005.5 hPa | 0.25 mm | 0 m/s | - | - |
| 1778002851 | 11.67° C | 91% | 1005.7 hPa | 0.51 mm | 0.45 m/s, 223° | - | - |
| 1778002249 | 11.67° C | 90% | 1005.6 hPa | 0.51 mm | 0.45 m/s, 205° | - | - |
| 1778001646 | 11.67° C | 90% | 1005.5 hPa | 1.02 mm | 2.68 m/s, 237° | - | - |
| 1778001043 | 11.67° C | 91% | 1005.7 hPa | 1.02 mm | 1.34 m/s, 330° | - | - |
| 1778000441 | 11.11° C | 91% | 1005.9 hPa | 1.27 mm | 0.89 m/s, 348° | - | - |
| 1777999838 | 11.11° C | 91% | 1006.1 hPa | 7.62 mm | 0.45 m/s, 248° | - | - |
| 1777999236 | 10.56° C | 89% | 1006.1 hPa | 7.87 mm | 1.34 m/s, 259° | - | - |
| 1777998633 | 10° C | 89% | 1006 hPa | 7.87 mm | 1.34 m/s, 293° | - | - |
| 1777998030 | 9.44° C | 87% | 1006.1 hPa | 7.62 mm | 2.24 m/s, 290° | - | - |
| 1777997428 | 10° C | 88% | 1006.1 hPa | 7.11 mm | 0.45 m/s, 319° | - | - |
| 1777996825 | 8.89° C | 89% | 1006.5 hPa | 6.86 mm | 3.58 m/s, 225° | - | - |
| 1777996222 | 16.11° C | 69% | 1006.1 hPa | 0.51 mm | 3.13 m/s, 215° | - | - |
| 1777995620 | 17.22° C | 65% | 1005.2 hPa | 0 mm | 2.24 m/s, 8° | - | - |
| 1777995017 | 17.22° C | 64% | 1005 hPa | 0 mm | 1.79 m/s, 29° | - | - |
| 1777994415 | 17.78° C | 66% | 1005.2 hPa | 0 mm | 1.34 m/s, 30° | - | - |
* Rain latest hour (hover to see other rain measurements)
** Current wind speed in m/s (hover to see current wind gust speed)